createdAt,value
2023-01-31T00:02:15.709Z,99.65
2023-01-31T00:04:43.723Z,87.68
2023-01-31T00:07:11.396Z,84.05
2023-01-31T00:09:39.458Z,80.22
2023-01-31T00:12:09.245Z,81.97
2023-01-31T00:14:37.314Z,76.57
2023-01-31T00:17:05.395Z,78.00
2023-01-31T00:19:35.107Z,75.47
2023-01-31T00:22:03.173Z,85.63
2023-01-31T00:24:30.912Z,85.85
2023-01-31T00:26:58.655Z,89.60
2023-01-31T00:29:26.841Z,78.35
2023-01-31T00:31:56.978Z,83.55
2023-01-31T00:34:27.129Z,74.50
2023-01-31T00:36:54.938Z,72.78
2023-01-31T00:39:22.560Z,80.25
2023-01-31T00:41:52.308Z,85.90
2023-01-31T00:44:20.198Z,84.38
2023-01-31T00:46:47.878Z,83.80
2023-01-31T00:49:17.642Z,77.88
2023-01-31T00:51:45.442Z,89.53
2023-01-31T00:54:13.002Z,86.18
2023-01-31T00:56:40.689Z,85.63
2023-01-31T00:59:08.514Z,84.82
2023-01-31T01:01:36.530Z,76.50
2023-01-31T01:04:06.653Z,107.22
2023-01-31T01:06:35.382Z,110.22
2023-01-31T01:09:03.613Z,112.85
2023-01-31T01:11:33.366Z,80.47
2023-01-31T01:14:01.680Z,73.82
2023-01-31T01:16:29.289Z,76.05
2023-01-31T01:18:59.112Z,72.82
2023-01-31T01:21:26.945Z,70.70
2023-01-31T01:23:54.614Z,80.82
2023-01-31T01:26:24.496Z,78.93
2023-01-31T01:28:52.420Z,86.70
2023-01-31T01:31:20.071Z,75.22
2023-01-31T01:33:48.752Z,75.22
2023-01-31T01:36:16.465Z,76.78
2023-01-31T01:38:44.013Z,71.05
2023-01-31T01:41:11.593Z,65.85
2023-01-31T01:43:39.220Z,60.58
2023-01-31T01:46:06.942Z,52.65
2023-01-31T01:48:36.645Z,56.80
2023-01-31T01:51:08.880Z,54.15
2023-01-31T01:53:36.457Z,54.58
2023-01-31T01:56:06.102Z,53.90
2023-01-31T01:58:33.872Z,57.22
2023-01-31T02:01:01.428Z,60.63
2023-01-31T02:03:31.335Z,63.85
2023-01-31T02:05:58.993Z,69.55
2023-01-31T02:08:26.569Z,59.83
2023-01-31T02:10:56.381Z,55.30
2023-01-31T02:13:24.762Z,50.97
2023-01-31T02:15:52.414Z,51.17
2023-01-31T02:18:22.236Z,50.63
2023-01-31T02:20:50.015Z,52.38
2023-01-31T02:23:17.489Z,49.40
2023-01-31T02:25:47.601Z,50.78
2023-01-31T02:28:15.197Z,48.63
2023-01-31T02:30:42.850Z,53.13
2023-01-31T02:33:12.709Z,50.83
2023-01-31T02:35:40.705Z,49.55
2023-01-31T02:38:08.655Z,44.15
2023-01-31T02:40:38.433Z,52.03
2023-01-31T02:43:06.087Z,52.03
2023-01-31T02:45:33.615Z,44.38
2023-01-31T02:48:03.498Z,48.53
2023-01-31T02:50:31.536Z,52.28
2023-01-31T02:52:59.066Z,47.53
2023-01-31T02:55:28.932Z,49.55
2023-01-31T02:57:56.712Z,42.65
2023-01-31T03:00:24.365Z,47.30
2023-01-31T03:02:54.227Z,40.58
2023-01-31T03:05:22.334Z,42.35
2023-01-31T03:07:50.103Z,37.33
2023-01-31T03:10:18.856Z,34.00
2023-01-31T03:12:46.627Z,35.60
2023-01-31T03:15:14.202Z,39.50
2023-01-31T03:17:43.992Z,40.97
2023-01-31T03:20:13.186Z,47.78
2023-01-31T03:22:40.849Z,43.38
2023-01-31T03:25:10.679Z,38.70
2023-01-31T03:27:38.478Z,37.45
2023-01-31T03:30:06.054Z,36.22
2023-01-31T03:32:36.143Z,33.67
2023-01-31T03:35:04.022Z,39.55
2023-01-31T03:37:31.702Z,41.72
2023-01-31T03:40:01.603Z,45.60
2023-01-31T03:42:29.396Z,44.40
2023-01-31T03:44:57.356Z,41.10
2023-01-31T03:47:25.180Z,49.60
2023-01-31T03:49:52.964Z,41.47
2023-01-31T03:52:20.527Z,44.80
2023-01-31T03:54:50.413Z,43.60
2023-01-31T03:57:18.233Z,46.15
2023-01-31T03:59:45.779Z,49.25
2023-01-31T04:02:15.547Z,51.33
2023-01-31T04:04:43.466Z,45.72
2023-01-31T04:07:11.109Z,51.22
2023-01-31T04:09:41.060Z,42.53
2023-01-31T04:12:09.187Z,40.63
2023-01-31T04:14:36.979Z,47.70
2023-01-31T04:17:09.523Z,38.90
2023-01-31T04:19:40.401Z,44.13
2023-01-31T04:22:07.965Z,37.30
2023-01-31T04:24:38.082Z,41.58
2023-01-31T04:27:05.998Z,39.38
2023-01-31T04:29:33.533Z,43.03
2023-01-31T04:32:03.426Z,41.42
2023-01-31T04:34:31.277Z,41.40
2023-01-31T04:36:58.968Z,41.58
2023-01-31T04:39:28.752Z,41.00
2023-01-31T04:44:40.333Z,46.10
2023-01-31T04:47:08.005Z,42.10
2023-01-31T04:49:36.529Z,37.00
2023-01-31T04:52:06.524Z,46.13
2023-01-31T04:54:34.234Z,39.08
2023-01-31T04:57:01.812Z,45.10
2023-01-31T04:59:31.639Z,48.55
2023-01-31T05:01:59.438Z,42.67
2023-01-31T05:04:27.314Z,44.90
2023-01-31T05:06:57.181Z,47.65
2023-01-31T05:09:24.970Z,44.13
2023-01-31T05:11:52.784Z,38.33
2023-01-31T05:14:23.126Z,44.83
2023-01-31T05:16:51.003Z,45.00
2023-01-31T05:19:18.625Z,42.53
2023-01-31T05:21:48.391Z,42.35
2023-01-31T05:24:17.773Z,41.78
2023-01-31T05:26:45.387Z,39.72
2023-01-31T05:29:13.200Z,43.85
2023-01-31T05:31:41.206Z,42.75
2023-01-31T05:34:08.744Z,37.55
2023-01-31T05:36:38.547Z,42.65
2023-01-31T05:39:07.660Z,37.85
2023-01-31T05:41:35.225Z,41.67
2023-01-31T05:44:03.185Z,42.85
2023-01-31T05:46:31.134Z,42.25
2023-01-31T05:48:58.702Z,43.45
2023-01-31T05:51:28.459Z,39.63
2023-01-31T05:53:56.440Z,40.97
2023-01-31T05:56:24.183Z,41.65
2023-01-31T05:58:53.962Z,35.63
2023-01-31T06:01:22.967Z,41.00
2023-01-31T06:03:50.581Z,36.35
2023-01-31T06:06:20.475Z,33.70
2023-01-31T06:08:48.579Z,37.80
2023-01-31T06:11:16.318Z,37.55
2023-01-31T06:13:46.259Z,37.25
2023-01-31T06:16:13.909Z,35.60
2023-01-31T06:18:41.529Z,35.00
2023-01-31T06:21:11.354Z,38.42
2023-01-31T06:23:39.076Z,34.40
2023-01-31T06:26:06.765Z,38.47
2023-01-31T06:28:36.507Z,39.10
2023-01-31T06:31:04.386Z,44.40
2023-01-31T06:33:45.093Z,39.40
2023-01-31T06:36:19.239Z,36.80
2023-01-31T06:38:47.139Z,37.78
2023-01-31T06:41:14.952Z,38.85
2023-01-31T06:43:44.643Z,32.97
2023-01-31T06:46:12.255Z,34.38
2023-01-31T06:48:39.813Z,34.67
2023-01-31T06:51:09.613Z,37.45
2023-01-31T06:53:37.330Z,41.08
2023-01-31T06:56:05.169Z,34.22
2023-01-31T06:58:33.908Z,43.45
2023-01-31T07:01:01.460Z,40.65
2023-01-31T07:03:29.360Z,38.88
2023-01-31T07:05:59.228Z,32.78
2023-01-31T07:08:26.838Z,36.45
2023-01-31T07:10:54.602Z,31.40
2023-01-31T07:13:24.354Z,38.38
2023-01-31T07:15:52.027Z,36.63
2023-01-31T07:18:19.654Z,42.30
2023-01-31T07:20:49.704Z,39.78
2023-01-31T07:23:17.255Z,33.67
2023-01-31T07:25:44.898Z,33.88
2023-01-31T07:28:14.737Z,36.75
2023-01-31T07:30:42.367Z,35.63
2023-01-31T07:33:10.010Z,33.00
2023-01-31T07:35:39.837Z,36.13
2023-01-31T07:38:08.475Z,39.88
2023-01-31T07:40:37.190Z,29.67
2023-01-31T07:43:05.953Z,40.33
2023-01-31T07:45:33.704Z,34.00
2023-01-31T07:48:01.591Z,31.27
2023-01-31T07:50:32.110Z,39.75
2023-01-31T07:52:59.761Z,30.45
2023-01-31T07:55:27.516Z,37.55
2023-01-31T07:57:57.284Z,32.55
2023-01-31T08:00:24.857Z,32.47
2023-01-31T08:02:52.541Z,30.77
2023-01-31T08:05:22.887Z,31.25
2023-01-31T08:07:50.766Z,29.35
2023-01-31T08:10:19.403Z,27.95
2023-01-31T08:12:50.172Z,31.77
2023-01-31T08:15:18.275Z,28.25
2023-01-31T08:17:46.342Z,33.40
2023-01-31T08:20:16.146Z,29.15
2023-01-31T08:22:43.733Z,32.28
2023-01-31T08:25:11.447Z,32.53
2023-01-31T08:27:41.235Z,27.95
2023-01-31T08:30:08.943Z,26.13
2023-01-31T08:32:37.197Z,28.00
2023-01-31T08:35:05.957Z,30.52
2023-01-31T08:37:33.856Z,29.85
2023-01-31T08:40:01.573Z,30.83
2023-01-31T08:42:31.528Z,31.45
2023-01-31T08:44:59.151Z,35.40
2023-01-31T08:47:29.145Z,33.75
2023-01-31T08:50:10.917Z,33.60
2023-01-31T08:52:48.310Z,27.52
2023-01-31T08:58:08.143Z,29.48
2023-01-31T09:00:47.399Z,32.85
2023-01-31T09:03:15.233Z,28.75
2023-01-31T09:05:45.013Z,27.27
2023-01-31T09:08:12.639Z,35.28
2023-01-31T09:10:41.049Z,31.13
2023-01-31T09:13:19.148Z,29.50
2023-01-31T09:15:47.547Z,25.13
2023-01-31T09:18:17.317Z,31.08
2023-01-31T09:20:44.890Z,33.50
2023-01-31T09:23:12.650Z,28.27
2023-01-31T09:25:46.933Z,27.90
2023-01-31T09:28:15.799Z,28.25
2023-01-31T09:30:44.970Z,25.95
2023-01-31T09:33:13.191Z,23.60
2023-01-31T09:35:41.091Z,30.23
2023-01-31T09:38:11.029Z,28.88
2023-01-31T09:40:38.924Z,31.73
2023-01-31T09:43:09.226Z,27.42
2023-01-31T09:45:36.786Z,32.53
2023-01-31T09:48:04.365Z,33.45
2023-01-31T09:50:34.553Z,25.08
2023-01-31T09:53:02.180Z,26.77
2023-01-31T09:55:29.728Z,30.73
2023-01-31T09:57:59.711Z,36.25
2023-01-31T10:00:27.272Z,28.88
2023-01-31T10:02:54.857Z,26.67
2023-01-31T10:05:25.188Z,29.98
2023-01-31T10:07:52.790Z,29.95
2023-01-31T10:10:20.369Z,29.30
2023-01-31T10:12:51.289Z,27.58
2023-01-31T10:15:19.228Z,28.02
2023-01-31T10:17:47.048Z,29.73
2023-01-31T10:20:15.934Z,25.70
2023-01-31T10:22:43.453Z,28.92
2023-01-31T10:25:11.121Z,27.77
2023-01-31T10:27:39.731Z,29.30
2023-01-31T10:30:07.308Z,28.33
2023-01-31T10:32:34.919Z,28.42
2023-01-31T10:35:02.655Z,29.92
2023-01-31T10:37:30.811Z,31.55
2023-01-31T10:39:58.484Z,34.05
2023-01-31T10:42:29.001Z,28.08
2023-01-31T10:44:56.751Z,33.85
2023-01-31T10:47:24.398Z,32.88
2023-01-31T10:49:55.444Z,34.28
2023-01-31T10:52:23.195Z,29.35
2023-01-31T10:54:50.778Z,29.65
2023-01-31T10:57:20.673Z,31.20
2023-01-31T10:59:49.118Z,36.10
2023-01-31T11:02:16.712Z,36.75
2023-01-31T11:04:45.237Z,40.03
2023-01-31T11:07:12.862Z,42.88
2023-01-31T11:09:40.349Z,51.38
2023-01-31T11:12:10.235Z,52.63
2023-01-31T11:14:37.811Z,51.97
2023-01-31T11:17:05.369Z,49.67
2023-01-31T11:19:36.569Z,49.63
2023-01-31T11:22:04.175Z,53.63
2023-01-31T11:24:31.763Z,48.83
2023-01-31T11:27:01.686Z,51.58
2023-01-31T11:29:29.459Z,43.33
2023-01-31T11:31:57.072Z,49.05
2023-01-31T11:34:27.080Z,41.75
2023-01-31T11:36:54.589Z,40.00
2023-01-31T11:39:22.101Z,46.70
2023-01-31T11:41:52.800Z,41.00
2023-01-31T11:44:20.324Z,51.53
2023-01-31T11:46:47.875Z,47.97
2023-01-31T11:49:17.858Z,48.30
2023-01-31T11:51:45.624Z,51.70
2023-01-31T11:54:13.131Z,46.63
2023-01-31T11:56:43.302Z,47.05
2023-01-31T11:59:10.790Z,49.97
2023-01-31T12:01:38.357Z,54.78
2023-01-31T12:04:06.551Z,61.38
2023-01-31T12:06:34.195Z,61.55
2023-01-31T12:09:01.756Z,62.80
2023-01-31T12:11:29.597Z,60.13
2023-01-31T12:13:57.158Z,65.28
2023-01-31T12:16:24.845Z,60.60
2023-01-31T12:18:54.892Z,57.17
2023-01-31T12:21:23.699Z,64.03
2023-01-31T12:23:51.968Z,58.47
2023-01-31T12:26:21.858Z,62.85
2023-01-31T12:28:49.496Z,65.88
2023-01-31T12:31:17.177Z,61.50
2023-01-31T12:33:47.288Z,63.45
2023-01-31T12:36:14.796Z,66.85
2023-01-31T12:38:42.378Z,60.38
2023-01-31T12:41:12.368Z,60.47
2023-01-31T12:43:39.914Z,63.60
2023-01-31T12:46:07.545Z,53.38
2023-01-31T12:48:37.512Z,60.22
2023-01-31T12:51:05.091Z,59.72
2023-01-31T12:53:32.608Z,67.25
2023-01-31T12:56:00.614Z,62.13
2023-01-31T12:58:28.127Z,60.38
2023-01-31T13:00:55.695Z,67.43
2023-01-31T13:03:25.506Z,67.50
2023-01-31T13:05:53.135Z,63.03
2023-01-31T13:08:20.637Z,61.78
2023-01-31T13:10:48.716Z,56.08
2023-01-31T13:13:16.461Z,64.32
2023-01-31T13:15:44.051Z,67.53
2023-01-31T13:18:14.071Z,60.40
2023-01-31T13:20:41.594Z,59.13
2023-01-31T13:23:09.163Z,65.50
2023-01-31T13:25:39.104Z,67.65
2023-01-31T13:28:06.708Z,69.28
2023-01-31T13:30:34.309Z,63.38
2023-01-31T13:33:04.120Z,57.78
2023-01-31T13:35:31.651Z,62.88
2023-01-31T13:37:59.231Z,66.55
2023-01-31T13:40:29.288Z,64.82
2023-01-31T13:42:56.819Z,61.10
2023-01-31T13:45:24.531Z,62.65
2023-01-31T13:47:54.398Z,70.72
2023-01-31T13:50:21.957Z,68.43
2023-01-31T13:52:51.548Z,69.95
2023-01-31T13:55:22.771Z,65.40
2023-01-31T13:57:50.549Z,68.40
2023-01-31T14:00:18.107Z,64.93
2023-01-31T14:02:48.285Z,67.50
2023-01-31T14:05:15.893Z,66.63
2023-01-31T14:07:43.448Z,68.13
2023-01-31T14:10:13.580Z,73.72
2023-01-31T14:12:41.271Z,70.38
2023-01-31T14:15:08.888Z,74.85
2023-01-31T14:17:38.752Z,77.95
2023-01-31T14:20:06.323Z,77.72
2023-01-31T14:22:34.543Z,87.93
2023-01-31T14:25:04.703Z,79.22
2023-01-31T14:27:32.343Z,81.63
2023-01-31T14:29:59.891Z,92.90
2023-01-31T14:32:30.739Z,82.20
2023-01-31T14:34:58.268Z,84.97
2023-01-31T14:37:25.849Z,86.47
2023-01-31T14:39:55.668Z,82.15
2023-01-31T14:42:23.224Z,78.88
2023-01-31T14:44:50.820Z,80.13
2023-01-31T14:47:18.951Z,78.03
2023-01-31T14:49:46.529Z,71.22
2023-01-31T14:52:14.068Z,74.93
2023-01-31T14:54:44.129Z,72.15
2023-01-31T14:57:11.713Z,74.82
2023-01-31T14:59:39.393Z,70.78
2023-01-31T15:02:09.568Z,75.00
2023-01-31T15:04:37.434Z,73.88
2023-01-31T15:07:05.483Z,66.80
2023-01-31T15:09:36.416Z,76.25
2023-01-31T15:12:05.272Z,90.53
2023-01-31T15:14:36.086Z,95.35
2023-01-31T15:17:06.308Z,111.32
2023-01-31T15:19:33.939Z,110.63
2023-01-31T15:22:01.703Z,112.30
2023-01-31T15:24:31.538Z,117.68
2023-01-31T15:26:59.072Z,126.57
2023-01-31T15:29:26.786Z,117.65
2023-01-31T15:31:56.648Z,117.82
2023-01-31T15:34:24.207Z,116.13
2023-01-31T15:36:51.945Z,112.95
2023-01-31T15:39:21.795Z,116.07
2023-01-31T15:41:49.337Z,106.75
2023-01-31T15:44:17.009Z,93.53
2023-01-31T15:46:46.849Z,79.22
2023-01-31T15:49:20.709Z,75.95
2023-01-31T15:51:59.207Z,71.50
2023-01-31T15:54:26.814Z,75.95
2023-01-31T15:56:54.376Z,67.35
2023-01-31T15:59:24.154Z,67.35
2023-01-31T16:01:51.737Z,68.30
2023-01-31T16:04:19.342Z,74.50
2023-01-31T16:06:49.501Z,68.90
2023-01-31T16:09:17.076Z,64.13
2023-01-31T16:11:44.869Z,63.75
2023-01-31T16:14:14.570Z,56.03
2023-01-31T16:16:42.144Z,57.13
2023-01-31T16:19:09.713Z,57.20
2023-01-31T16:21:39.827Z,55.00
2023-01-31T16:24:07.363Z,62.25
2023-01-31T16:26:34.996Z,58.80
2023-01-31T16:29:05.019Z,48.47
2023-01-31T16:31:32.665Z,50.30
2023-01-31T16:34:00.457Z,50.85
2023-01-31T16:36:30.288Z,55.10
2023-01-31T16:38:57.870Z,53.55
2023-01-31T16:41:25.436Z,49.47
2023-01-31T16:43:55.185Z,48.58
2023-01-31T16:46:22.783Z,52.13
2023-01-31T16:48:50.392Z,52.63
2023-01-31T16:51:20.620Z,52.45
2023-01-31T16:53:48.178Z,51.17
2023-01-31T16:56:15.749Z,55.50
2023-01-31T16:58:44.847Z,52.10
2023-01-31T17:01:12.501Z,54.17
2023-01-31T17:03:40.705Z,57.58
2023-01-31T17:06:10.960Z,51.42
2023-01-31T17:08:38.518Z,57.63
2023-01-31T17:11:06.324Z,58.33
2023-01-31T17:13:36.091Z,58.08
2023-01-31T17:16:03.728Z,53.20
2023-01-31T17:18:31.564Z,56.65
2023-01-31T17:21:01.447Z,57.38
2023-01-31T17:23:28.999Z,55.10
2023-01-31T17:25:56.534Z,58.80
2023-01-31T17:28:26.480Z,55.53
2023-01-31T17:30:54.115Z,59.58
2023-01-31T17:33:21.733Z,53.15
2023-01-31T17:35:52.359Z,53.67
2023-01-31T17:38:19.940Z,52.90
2023-01-31T17:40:47.557Z,50.47
2023-01-31T17:43:17.260Z,54.70
2023-01-31T17:45:44.928Z,52.97
2023-01-31T17:48:17.296Z,51.72
2023-01-31T17:50:54.524Z,54.45
2023-01-31T17:53:22.045Z,57.22
2023-01-31T17:55:49.614Z,50.97
2023-01-31T17:58:19.415Z,57.55
2023-01-31T18:00:46.984Z,56.08
2023-01-31T18:03:17.977Z,48.85
2023-01-31T18:05:48.729Z,56.72
2023-01-31T18:08:16.712Z,54.45
2023-01-31T18:10:45.115Z,52.20
2023-01-31T18:13:15.294Z,55.17
2023-01-31T18:15:44.259Z,53.15
2023-01-31T18:18:12.451Z,53.92
2023-01-31T18:20:42.195Z,57.03
2023-01-31T18:23:10.432Z,54.33
2023-01-31T18:25:38.024Z,55.25
2023-01-31T18:28:08.054Z,51.63
2023-01-31T18:30:36.023Z,54.22
2023-01-31T18:33:03.957Z,58.15
2023-01-31T18:35:33.792Z,64.32
2023-01-31T18:38:01.403Z,68.07
2023-01-31T18:40:29.180Z,69.63
2023-01-31T18:42:57.848Z,63.03
2023-01-31T18:45:25.540Z,64.90
2023-01-31T18:47:53.313Z,64.85
2023-01-31T18:50:23.101Z,58.85
2023-01-31T18:52:50.637Z,64.10
2023-01-31T18:55:18.358Z,56.30
2023-01-31T18:57:48.094Z,58.20
2023-01-31T19:00:15.683Z,60.42
2023-01-31T19:02:43.261Z,58.85
2023-01-31T19:05:13.138Z,66.10
2023-01-31T19:07:40.765Z,62.20
2023-01-31T19:10:08.579Z,62.47
2023-01-31T19:12:38.334Z,59.70
2023-01-31T19:15:05.904Z,62.85
2023-01-31T19:17:34.100Z,63.90
2023-01-31T19:20:03.818Z,66.95
2023-01-31T19:22:31.502Z,65.22
2023-01-31T19:24:59.269Z,63.65
2023-01-31T19:27:29.162Z,66.47
2023-01-31T19:29:57.477Z,62.20
2023-01-31T19:32:25.275Z,62.97
2023-01-31T19:34:55.029Z,64.07
2023-01-31T19:37:22.650Z,64.55
2023-01-31T19:39:50.440Z,64.47
2023-01-31T19:42:20.193Z,72.53
2023-01-31T19:44:47.835Z,64.57
2023-01-31T19:47:16.375Z,68.18
2023-01-31T19:49:46.148Z,72.22
2023-01-31T19:52:13.753Z,70.75
2023-01-31T19:54:41.529Z,68.47
2023-01-31T19:57:11.394Z,68.13
2023-01-31T19:59:38.970Z,67.20
2023-01-31T20:02:06.935Z,68.57
2023-01-31T20:04:36.759Z,71.38
2023-01-31T20:07:04.416Z,69.50
2023-01-31T20:09:32.304Z,70.40
2023-01-31T20:12:02.066Z,74.00
2023-01-31T20:14:29.681Z,69.75
2023-01-31T20:16:58.027Z,72.20
2023-01-31T20:19:28.267Z,70.25
2023-01-31T20:21:55.910Z,73.95
2023-01-31T20:24:24.280Z,72.28
2023-01-31T20:26:54.108Z,71.53
2023-01-31T20:29:21.897Z,68.90
2023-01-31T20:31:49.563Z,68.30
2023-01-31T20:34:20.868Z,69.32
2023-01-31T20:36:48.512Z,73.60
2023-01-31T20:39:16.450Z,69.43
2023-01-31T20:41:46.293Z,70.35
2023-01-31T20:44:13.854Z,71.57
2023-01-31T20:46:41.559Z,70.85
2023-01-31T20:49:11.343Z,68.63
2023-01-31T20:51:38.885Z,74.93
2023-01-31T20:54:06.621Z,71.72
2023-01-31T20:56:36.458Z,67.75
2023-01-31T20:59:04.005Z,68.40
2023-01-31T21:01:34.003Z,69.35
2023-01-31T21:04:03.722Z,78.53
2023-01-31T21:06:31.683Z,65.47
2023-01-31T21:08:59.236Z,69.82
2023-01-31T21:11:29.203Z,74.07
2023-01-31T21:13:59.269Z,73.43
2023-01-31T21:16:34.785Z,74.40
2023-01-31T21:19:04.762Z,68.57
2023-01-31T21:21:54.317Z,75.50
2023-01-31T21:24:22.377Z,59.30
2023-01-31T21:26:50.245Z,65.57
2023-01-31T21:29:20.441Z,69.28
2023-01-31T21:31:48.452Z,65.38
2023-01-31T21:34:16.123Z,68.47
2023-01-31T21:36:46.054Z,71.28
2023-01-31T21:39:13.934Z,69.72
2023-01-31T21:41:41.638Z,66.97
2023-01-31T21:44:09.235Z,65.43
2023-01-31T21:46:37.284Z,61.05
2023-01-31T21:49:04.949Z,62.67
2023-01-31T21:51:34.884Z,63.05
2023-01-31T21:54:02.839Z,68.72
2023-01-31T21:56:30.689Z,71.85
2023-01-31T21:59:00.526Z,68.60
2023-01-31T22:01:28.457Z,70.43
2023-01-31T22:03:56.247Z,64.85
2023-01-31T22:06:26.077Z,66.63
2023-01-31T22:08:53.960Z,73.82
2023-01-31T22:11:21.602Z,78.45
2023-01-31T22:13:53.132Z,73.40
2023-01-31T22:16:22.985Z,76.93
2023-01-31T22:18:50.802Z,74.28
2023-01-31T22:21:20.742Z,79.30
2023-01-31T22:23:48.696Z,81.85
2023-01-31T22:26:16.377Z,88.93
2023-01-31T22:28:44.691Z,109.20
2023-01-31T22:31:12.574Z,112.90
2023-01-31T22:33:40.339Z,124.97
2023-01-31T22:36:10.180Z,119.07
2023-01-31T22:38:40.828Z,110.07
2023-01-31T22:41:09.111Z,101.55
2023-01-31T22:43:39.702Z,93.20
2023-01-31T22:46:08.403Z,85.95
2023-01-31T22:48:36.194Z,78.20
2023-01-31T22:51:05.995Z,73.10
2023-01-31T22:53:34.491Z,80.53
2023-01-31T22:56:04.707Z,77.50
2023-01-31T22:58:34.332Z,80.53
2023-01-31T23:01:02.173Z,86.00
2023-01-31T23:03:29.962Z,84.75
2023-01-31T23:05:58.817Z,80.45
2023-01-31T23:08:27.282Z,73.40
2023-01-31T23:10:54.849Z,72.13
2023-01-31T23:13:24.636Z,75.50
2023-01-31T23:15:52.459Z,75.00
2023-01-31T23:18:20.094Z,75.07
2023-01-31T23:20:50.249Z,78.05
2023-01-31T23:23:18.044Z,73.18
2023-01-31T23:25:45.615Z,76.80
2023-01-31T23:28:15.311Z,74.55
2023-01-31T23:30:43.226Z,85.50
2023-01-31T23:33:10.821Z,80.60
2023-01-31T23:35:40.517Z,85.07
2023-01-31T23:38:09.332Z,86.15
2023-01-31T23:40:36.914Z,92.80
2023-01-31T23:43:06.583Z,104.90
2023-01-31T23:45:35.176Z,129.90
2023-01-31T23:48:02.740Z,105.13
2023-01-31T23:50:32.585Z,112.15
2023-01-31T23:53:00.498Z,118.20
2023-01-31T23:55:28.072Z,126.47
2023-01-31T23:57:55.825Z,129.85
